Terminal Aerodrome Forecast
Issued by NWS Oklahoma City, OK

Home | Current Version | Previous Version | Text Only | Print | Product List | Glossary On
Versions: 1 2 3 4 5 6 7 8 9 10 11 12 13 14
000
FTUS44 KOUN 242320
TAFOUN
TAF
KOUN 242320Z 2500/2524 03005KT P6SM SCT080
     FM250300 36014KT P6SM BKN070
     FM250800 36016KT 6SM -SHRA SCT025 BKN050
      TEMPO 2508/2511 3SM -TSRA BR SCT007 OVC025CB
     FM251100 36013KT 5SM -RA OVC007
     FM251600 33013G20KT P6SM SCT030=

USA.gov is the U.S. government's official web portal to all federal, state and local government web resources and services.